createdAt,value
2018-11-27T00:00:54.661Z,17.43
2018-11-27T00:03:43.811Z,18.57
2018-11-27T00:06:24.789Z,17.67
2018-11-27T00:09:01.256Z,19.73
2018-11-27T00:11:40.902Z,20.70
2018-11-27T00:14:17.883Z,19.67
2018-11-27T00:16:57.663Z,16.83
2018-11-27T00:19:36.263Z,18.20
2018-11-27T00:22:10.044Z,18.43
2018-11-27T00:24:41.149Z,18.47
2018-11-27T00:27:15.388Z,17.40
2018-11-27T00:29:47.488Z,18.63
2018-11-27T00:32:28.686Z,17.80
2018-11-27T00:35:07.277Z,17.77
2018-11-27T00:37:48.544Z,19.10
2018-11-27T00:40:27.170Z,19.13
2018-11-27T00:43:06.407Z,19.00
2018-11-27T00:45:43.043Z,17.40
2018-11-27T00:48:21.772Z,18.17
2018-11-27T00:50:57.076Z,18.00
2018-11-27T00:53:38.620Z,19.50
2018-11-27T00:56:20.207Z,18.90
2018-11-27T00:59:11.825Z,19.43
2018-11-27T01:01:57.718Z,19.77
2018-11-27T01:04:45.552Z,18.87
2018-11-27T01:07:16.409Z,19.67
2018-11-27T01:10:04.900Z,19.23
2018-11-27T01:12:34.648Z,19.77
2018-11-27T01:15:06.220Z,18.70
2018-11-27T01:17:38.364Z,19.20
2018-11-27T01:20:15.553Z,19.07
2018-11-27T01:22:45.531Z,19.77
2018-11-27T01:25:16.192Z,19.10
2018-11-27T01:27:45.937Z,19.70
2018-11-27T01:30:18.568Z,17.97
2018-11-27T01:32:49.854Z,19.57
2018-11-27T01:35:26.345Z,18.27
2018-11-27T01:37:56.962Z,18.17
2018-11-27T01:40:31.874Z,18.53
2018-11-27T01:43:22.610Z,18.03
2018-11-27T01:45:54.628Z,18.37
2018-11-27T01:48:25.055Z,18.77
2018-11-27T01:50:55.079Z,19.00
2018-11-27T01:53:25.224Z,19.97
2018-11-27T01:55:55.793Z,18.33
2018-11-27T01:58:27.014Z,18.03
2018-11-27T02:00:57.751Z,19.83
2018-11-27T02:03:31.823Z,19.07
2018-11-27T02:06:07.986Z,18.23
2018-11-27T02:08:44.866Z,19.83
2018-11-27T02:11:16.827Z,19.17
2018-11-27T02:13:48.516Z,18.40
2018-11-27T02:16:18.905Z,17.60
2018-11-27T02:18:48.928Z,17.17
2018-11-27T02:21:20.176Z,18.17
2018-11-27T02:23:49.949Z,17.70
2018-11-27T02:26:20.141Z,19.37
2018-11-27T02:28:49.785Z,20.60
2018-11-27T02:31:21.042Z,18.70
2018-11-27T02:33:56.409Z,19.53
2018-11-27T02:36:27.183Z,18.70
2018-11-27T02:38:57.427Z,19.57
2018-11-27T02:41:28.031Z,19.50
2018-11-27T02:43:58.460Z,20.50
2018-11-27T02:46:28.271Z,21.33
2018-11-27T02:48:57.739Z,19.93
2018-11-27T02:51:29.939Z,19.17
2018-11-27T02:53:59.814Z,19.47
2018-11-27T02:56:29.954Z,19.87
2018-11-27T02:59:00.715Z,21.37
2018-11-27T03:01:35.468Z,20.47
2018-11-27T03:04:07.190Z,20.53
2018-11-27T03:06:37.601Z,21.63
2018-11-27T03:09:11.125Z,18.73
2018-11-27T03:11:40.726Z,20.53
2018-11-27T03:14:10.433Z,19.80
2018-11-27T03:16:42.793Z,20.57
2018-11-27T03:19:12.732Z,19.00
2018-11-27T03:21:43.240Z,20.13
2018-11-27T03:24:13.575Z,18.60
2018-11-27T03:26:44.662Z,18.07
2018-11-27T03:29:17.084Z,18.70
2018-11-27T03:31:48.273Z,18.47
2018-11-27T03:34:19.740Z,18.70
2018-11-27T03:36:51.844Z,19.07
2018-11-27T03:39:22.262Z,18.90
2018-11-27T03:41:59.961Z,19.80
2018-11-27T03:44:30.667Z,19.93
2018-11-27T03:47:00.828Z,19.67
2018-11-27T03:49:30.947Z,19.83
2018-11-27T03:52:01.454Z,18.83
2018-11-27T03:54:31.996Z,19.50
2018-11-27T03:57:02.535Z,18.60
2018-11-27T03:59:32.396Z,20.67
2018-11-27T04:02:02.295Z,20.43
2018-11-27T04:04:31.995Z,19.40
2018-11-27T04:07:04.987Z,19.40
2018-11-27T04:09:34.731Z,18.80
2018-11-27T04:12:04.717Z,19.40
2018-11-27T04:14:35.589Z,19.50
2018-11-27T04:17:12.974Z,18.63
2018-11-27T04:19:52.486Z,18.90
2018-11-27T04:22:28.951Z,19.07
2018-11-27T04:24:59.813Z,19.07
2018-11-27T04:27:31.346Z,19.53
2018-11-27T04:30:03.615Z,18.83
2018-11-27T04:32:36.821Z,20.07
2018-11-27T04:35:11.908Z,18.70
2018-11-27T04:37:41.811Z,20.40
2018-11-27T04:40:17.596Z,20.10
2018-11-27T04:42:47.581Z,19.50
2018-11-27T04:45:21.284Z,21.43
2018-11-27T04:47:51.861Z,19.23
2018-11-27T04:50:21.633Z,19.63
2018-11-27T04:52:51.791Z,19.77
2018-11-27T04:55:22.604Z,19.47
2018-11-27T04:57:55.820Z,20.43
2018-11-27T05:00:27.898Z,22.27
2018-11-27T05:02:57.878Z,20.90
2018-11-27T05:05:28.264Z,21.60
2018-11-27T05:07:58.340Z,20.37
2018-11-27T05:10:28.110Z,22.27
2018-11-27T05:12:58.458Z,20.87
2018-11-27T05:15:28.250Z,21.73
2018-11-27T05:17:59.834Z,21.20
2018-11-27T05:20:30.260Z,21.53
2018-11-27T05:23:00.008Z,20.20
2018-11-27T05:25:30.822Z,20.93
2018-11-27T05:28:01.962Z,19.60
2018-11-27T05:30:31.762Z,21.00
2018-11-27T05:33:03.509Z,21.10
2018-11-27T05:35:35.045Z,20.40
2018-11-27T05:38:05.252Z,21.47
2018-11-27T05:40:43.637Z,20.97
2018-11-27T05:43:26.548Z,22.17
2018-11-27T05:45:59.923Z,21.30
2018-11-27T05:48:47.618Z,20.27
2018-11-27T05:51:28.767Z,20.13
2018-11-27T05:53:59.817Z,20.77
2018-11-27T05:56:40.178Z,21.63
2018-11-27T05:59:16.415Z,20.43
2018-11-27T06:01:57.881Z,20.97
2018-11-27T06:07:10.602Z,20.63
2018-11-27T06:09:46.653Z,19.67
2018-11-27T06:12:20.916Z,19.90
2018-11-27T06:14:59.237Z,20.80
2018-11-27T06:17:32.101Z,19.30
2018-11-27T06:20:24.462Z,19.60
2018-11-27T06:23:00.461Z,20.13
2018-11-27T06:25:34.809Z,20.40
2018-11-27T06:28:13.584Z,20.83
2018-11-27T06:30:57.088Z,20.60
2018-11-27T06:33:26.947Z,20.70
2018-11-27T06:36:00.150Z,22.00
2018-11-27T06:38:39.124Z,21.20
2018-11-27T06:41:22.373Z,22.67
2018-11-27T06:44:02.059Z,20.80
2018-11-27T06:46:42.741Z,21.77
2018-11-27T06:49:17.682Z,22.07
2018-11-27T06:51:53.004Z,21.97
2018-11-27T06:54:45.153Z,21.07
2018-11-27T06:57:16.813Z,21.10
2018-11-27T06:59:47.189Z,22.10
2018-11-27T07:05:16.414Z,21.47
2018-11-27T07:07:47.678Z,22.70
2018-11-27T07:10:22.864Z,22.87
2018-11-27T07:12:57.497Z,21.40
2018-11-27T07:15:28.304Z,21.70
2018-11-27T07:17:58.552Z,22.20
2018-11-27T07:20:28.307Z,21.87
2018-11-27T07:22:59.371Z,22.47
2018-11-27T07:25:29.168Z,22.30
2018-11-27T07:27:59.162Z,22.73
2018-11-27T07:30:28.944Z,23.27
2018-11-27T07:33:09.260Z,23.73
2018-11-27T07:35:39.044Z,22.73
2018-11-27T07:38:10.666Z,22.27
2018-11-27T07:40:40.779Z,23.03
2018-11-27T07:43:14.735Z,22.40
2018-11-27T07:45:44.375Z,23.33
2018-11-27T07:48:14.826Z,24.93
2018-11-27T07:50:45.230Z,25.83
2018-11-27T07:53:15.203Z,23.60
2018-11-27T07:55:48.747Z,25.17
2018-11-27T07:58:24.822Z,23.47
2018-11-27T08:00:59.944Z,25.13
2018-11-27T08:11:15.553Z,24.27
2018-11-27T08:13:52.245Z,24.47
2018-11-27T08:16:28.719Z,23.47
2018-11-27T08:19:02.219Z,25.00
2018-11-27T08:21:41.797Z,22.27
2018-11-27T08:24:28.884Z,24.10
2018-11-27T08:27:00.592Z,22.47
2018-11-27T08:29:32.472Z,22.13
2018-11-27T08:32:04.740Z,22.83
2018-11-27T08:34:48.849Z,21.50
2018-11-27T08:37:36.693Z,21.57
2018-11-27T08:40:21.098Z,22.07
2018-11-27T08:43:03.568Z,22.83
2018-11-27T08:45:49.519Z,21.20
2018-11-27T08:48:35.108Z,21.13
2018-11-27T08:51:13.081Z,21.03
2018-11-27T08:53:49.981Z,21.63
2018-11-27T08:56:36.178Z,22.67
2018-11-27T08:59:07.880Z,19.70
2018-11-27T09:01:39.068Z,20.87
2018-11-27T09:04:12.118Z,22.73
2018-11-27T09:06:43.122Z,20.93
2018-11-27T09:09:17.102Z,20.23
2018-11-27T09:11:47.383Z,19.20
2018-11-27T09:14:20.424Z,20.30
2018-11-27T09:16:52.747Z,19.57
2018-11-27T09:19:33.264Z,18.77
2018-11-27T09:22:03.458Z,18.27
2018-11-27T09:24:34.403Z,20.83
2018-11-27T09:27:04.334Z,19.30
2018-11-27T09:29:35.562Z,18.73
2018-11-27T09:32:05.448Z,19.37
2018-11-27T09:34:39.273Z,19.57
2018-11-27T09:37:12.498Z,19.67
2018-11-27T09:39:44.331Z,19.20
2018-11-27T09:42:33.300Z,18.20
2018-11-27T09:45:18.842Z,19.73
2018-11-27T09:48:00.236Z,19.43
2018-11-27T09:50:44.321Z,20.43
2018-11-27T09:53:24.190Z,19.70
2018-11-27T09:55:58.617Z,20.13
2018-11-27T09:58:41.402Z,19.73
2018-11-27T10:01:46.115Z,20.47
2018-11-27T10:04:31.992Z,19.30
2018-11-27T10:07:17.997Z,20.20
2018-11-27T10:10:04.062Z,19.57
2018-11-27T10:12:53.305Z,19.70
2018-11-27T10:15:47.751Z,21.23
2018-11-27T10:18:19.603Z,22.23
2018-11-27T10:20:52.975Z,20.43
2018-11-27T10:23:28.543Z,20.60
2018-11-27T10:25:59.360Z,21.73
2018-11-27T10:28:31.937Z,21.20
2018-11-27T10:30:59.048Z,20.83
2018-11-27T10:33:40.346Z,20.97
2018-11-27T10:36:22.899Z,19.90
2018-11-27T10:39:00.930Z,20.80
2018-11-27T10:41:32.530Z,20.17
2018-11-27T10:44:04.223Z,19.60
2018-11-27T10:46:34.897Z,20.90
2018-11-27T10:49:25.865Z,19.50
2018-11-27T10:52:16.759Z,22.10
2018-11-27T10:55:08.243Z,19.70
2018-11-27T10:57:39.722Z,19.40
2018-11-27T11:00:27.230Z,20.37
2018-11-27T11:03:07.558Z,22.07
2018-11-27T11:05:45.533Z,20.43
2018-11-27T11:08:33.242Z,20.30
2018-11-27T11:11:05.798Z,20.40
2018-11-27T11:13:41.378Z,19.87
2018-11-27T11:16:15.029Z,19.17
2018-11-27T11:18:54.487Z,21.33
2018-11-27T11:21:26.642Z,21.63
2018-11-27T11:23:56.747Z,22.10
2018-11-27T11:26:29.602Z,21.73
2018-11-27T11:29:29.099Z,21.07
2018-11-27T11:32:09.121Z,21.27
2018-11-27T11:34:40.019Z,22.07
2018-11-27T11:37:11.122Z,21.30
2018-11-27T11:39:45.886Z,21.73
2018-11-27T11:42:30.787Z,21.70
2018-11-27T11:45:02.059Z,21.77
2018-11-27T11:47:32.494Z,21.37
2018-11-27T11:50:04.182Z,24.23
2018-11-27T11:52:35.168Z,23.53
2018-11-27T11:55:04.768Z,33.10
2018-11-27T11:57:37.414Z,22.20
2018-11-27T12:00:20.009Z,24.47
2018-11-27T12:02:55.680Z,21.50
2018-11-27T12:05:25.598Z,22.20
2018-11-27T12:07:57.152Z,22.10
2018-11-27T12:13:16.669Z,22.37
2018-11-27T12:15:57.017Z,23.30
2018-11-27T12:18:27.424Z,23.67
2018-11-27T12:20:59.870Z,23.60
2018-11-27T12:23:30.839Z,22.77
2018-11-27T12:26:02.297Z,22.97
2018-11-27T12:28:33.283Z,22.20
2018-11-27T12:31:03.969Z,23.40
2018-11-27T12:33:34.720Z,22.47
2018-11-27T12:36:04.730Z,23.43
2018-11-27T12:38:35.228Z,22.57
2018-11-27T12:41:10.188Z,23.50
2018-11-27T12:43:36.700Z,23.97
2018-11-27T12:46:07.860Z,23.97
2018-11-27T12:48:38.810Z,22.07
2018-11-27T12:51:10.097Z,23.93
2018-11-27T12:53:39.657Z,23.20
2018-11-27T12:56:11.593Z,24.20
2018-11-27T12:58:43.327Z,23.97
2018-11-27T13:01:13.126Z,22.27
2018-11-27T13:03:43.458Z,24.07
2018-11-27T13:06:13.330Z,22.80
2018-11-27T13:08:43.634Z,23.20
2018-11-27T13:11:13.547Z,25.67
2018-11-27T13:13:45.954Z,21.17
2018-11-27T13:16:18.248Z,23.80
2018-11-27T13:18:52.330Z,21.73
2018-11-27T13:21:22.976Z,21.97
2018-11-27T13:23:53.249Z,20.67
2018-11-27T13:29:36.425Z,22.07
2018-11-27T13:32:13.393Z,22.00
2018-11-27T13:34:46.496Z,22.00
2018-11-27T13:37:13.654Z,22.47
2018-11-27T13:39:44.079Z,22.87
2018-11-27T13:42:15.929Z,22.77
2018-11-27T13:44:50.587Z,22.33
2018-11-27T13:47:21.767Z,22.57
2018-11-27T13:49:51.690Z,21.87
2018-11-27T13:52:22.335Z,21.60
2018-11-27T13:54:54.803Z,22.13
2018-11-27T13:57:27.127Z,22.40
2018-11-27T13:59:59.044Z,23.13
2018-11-27T14:02:31.278Z,34.00
2018-11-27T14:07:45.186Z,22.70
2018-11-27T14:10:27.061Z,21.87
2018-11-27T14:12:57.260Z,22.37
2018-11-27T14:15:31.290Z,22.03
2018-11-27T14:18:10.033Z,21.63
2018-11-27T14:20:46.008Z,22.67
2018-11-27T14:23:21.456Z,21.90
2018-11-27T14:25:53.860Z,22.83
2018-11-27T14:28:23.857Z,23.30
2018-11-27T14:31:08.308Z,22.73
2018-11-27T14:33:47.328Z,22.33
2018-11-27T14:36:33.685Z,22.57
2018-11-27T14:39:10.513Z,22.43
2018-11-27T14:41:44.596Z,22.70
2018-11-27T14:44:30.475Z,23.53
2018-11-27T14:47:02.140Z,22.07
2018-11-27T14:49:39.222Z,24.33
2018-11-27T14:52:22.294Z,23.57
2018-11-27T14:56:25.854Z,22.70
2018-11-27T14:59:07.027Z,25.03
2018-11-27T15:01:57.143Z,24.10
2018-11-27T15:04:47.950Z,25.73
2018-11-27T15:07:27.257Z,22.27
2018-11-27T15:10:03.894Z,24.20
2018-11-27T15:12:59.656Z,23.17
2018-11-27T15:15:37.977Z,22.97
2018-11-27T15:18:17.513Z,23.27
2018-11-27T15:20:48.760Z,23.97
2018-11-27T15:23:43.619Z,24.30
2018-11-27T22:02:03.936Z,42.50
2018-11-27T22:04:33.823Z,44.17
2018-11-27T22:07:04.587Z,43.70
2018-11-27T22:09:35.357Z,43.30
2018-11-27T22:12:08.991Z,39.40
2018-11-27T22:14:41.130Z,40.87
2018-11-27T22:17:13.743Z,39.53
2018-11-27T22:19:48.071Z,39.30
2018-11-27T22:22:20.347Z,42.83
2018-11-27T22:24:52.192Z,40.37
2018-11-27T22:27:23.768Z,43.17
2018-11-27T22:30:04.912Z,41.63
2018-11-27T22:32:37.622Z,40.93
2018-11-27T22:35:13.093Z,38.13
2018-11-27T22:37:43.846Z,37.97
2018-11-27T22:40:24.633Z,37.07
2018-11-27T22:42:58.791Z,39.73
2018-11-27T22:45:40.787Z,39.17
2018-11-27T22:48:13.197Z,39.57
2018-11-27T22:50:46.767Z,39.20
2018-11-27T22:53:19.913Z,39.93
2018-11-27T22:55:51.924Z,36.97
2018-11-27T22:58:24.157Z,37.37
2018-11-27T23:00:54.068Z,38.27
2018-11-27T23:03:26.564Z,36.93
2018-11-27T23:05:57.622Z,37.27
2018-11-27T23:08:28.352Z,36.17
2018-11-27T23:10:58.325Z,33.83
2018-11-27T23:13:31.175Z,35.20
2018-11-27T23:16:01.132Z,35.37
2018-11-27T23:18:33.891Z,35.80
2018-11-27T23:21:05.830Z,33.27
2018-11-27T23:23:36.712Z,31.37
2018-11-27T23:26:10.120Z,33.57
2018-11-27T23:28:47.104Z,33.57
2018-11-27T23:31:18.657Z,33.77
2018-11-27T23:33:53.137Z,34.30
2018-11-27T23:36:24.350Z,34.70
2018-11-27T23:38:54.469Z,33.67
2018-11-27T23:41:29.091Z,34.20
2018-11-27T23:44:09.889Z,35.83
2018-11-27T23:46:44.857Z,37.13
2018-11-27T23:49:18.363Z,34.87
2018-11-27T23:51:51.467Z,34.77
2018-11-27T23:54:24.768Z,34.57
2018-11-27T23:56:56.960Z,35.80
2018-11-27T23:59:27.939Z,34.73
